sensor_id;sensor_type;location;lat;lon;timestamp;temperature;humidity
35305;DHT22;26433;48.034;-1.764;2022-09-16T05:01:32;16.50;81.20
35305;DHT22;26433;48.034;-1.764;2022-09-16T05:06:39;16.50;81.00
35305;DHT22;26433;48.034;-1.764;2022-09-16T05:11:43;16.50;81.20
35305;DHT22;26433;48.034;-1.764;2022-09-16T05:16:48;16.60;81.20
35305;DHT22;26433;48.034;-1.764;2022-09-16T05:21:51;16.60;81.30
35305;DHT22;26433;48.034;-1.764;2022-09-16T05:26:55;16.50;81.40
35305;DHT22;26433;48.034;-1.764;2022-09-16T05:32:00;16.50;81.60
35305;DHT22;26433;48.034;-1.764;2022-09-16T05:37:04;16.60;81.50
35305;DHT22;26433;48.034;-1.764;2022-09-16T05:42:08;16.60;81.50
35305;DHT22;26433;48.034;-1.764;2022-09-16T05:47:13;16.70;81.70
35305;DHT22;26433;48.034;-1.764;2022-09-16T05:52:17;16.60;81.80
35305;DHT22;26433;48.034;-1.764;2022-09-16T05:57:21;16.60;81.80
35305;DHT22;26433;48.034;-1.764;2022-09-16T06:02:26;16.60;81.90
35305;DHT22;26433;48.034;-1.764;2022-09-16T06:07:30;16.70;81.80
35305;DHT22;26433;48.034;-1.764;2022-09-16T06:12:33;16.70;82.10
35305;DHT22;26433;48.034;-1.764;2022-09-16T06:17:38;16.70;81.60
35305;DHT22;26433;48.034;-1.764;2022-09-16T06:22:42;16.70;81.90
35305;DHT22;26433;48.034;-1.764;2022-09-16T06:27:46;16.80;82.00
35305;DHT22;26433;48.034;-1.764;2022-09-16T06:32:51;16.80;81.90
35305;DHT22;26433;48.034;-1.764;2022-09-16T06:37:54;16.80;81.90
35305;DHT22;26433;48.034;-1.764;2022-09-16T06:42:58;16.90;82.00
35305;DHT22;26433;48.034;-1.764;2022-09-16T06:48:03;16.80;82.40
35305;DHT22;26433;48.034;-1.764;2022-09-16T06:53:07;16.90;82.10
35305;DHT22;26433;48.034;-1.764;2022-09-16T06:58:10;16.90;82.00
35305;DHT22;26433;48.034;-1.764;2022-09-16T07:03:15;17.00;81.90
35305;DHT22;26433;48.034;-1.764;2022-09-16T07:08:19;17.00;82.00
35305;DHT22;26433;48.034;-1.764;2022-09-16T07:13:23;17.10;81.60
35305;DHT22;26433;48.034;-1.764;2022-09-16T07:18:28;17.10;81.40
35305;DHT22;26433;48.034;-1.764;2022-09-16T07:23:34;17.20;81.40
35305;DHT22;26433;48.034;-1.764;2022-09-16T07:28:40;17.30;81.40
35305;DHT22;26433;48.034;-1.764;2022-09-16T07:33:46;17.50;80.90
35305;DHT22;26433;48.034;-1.764;2022-09-16T07:38:51;17.70;80.40
35305;DHT22;26433;48.034;-1.764;2022-09-16T07:43:56;17.80;80.30
35305;DHT22;26433;48.034;-1.764;2022-09-16T07:49:03;17.90;80.10
35305;DHT22;26433;48.034;-1.764;2022-09-16T07:54:10;18.10;79.80
35305;DHT22;26433;48.034;-1.764;2022-09-16T07:59:16;18.20;79.50
35305;DHT22;26433;48.034;-1.764;2022-09-16T08:04:22;18.30;79.10
35305;DHT22;26433;48.034;-1.764;2022-09-16T08:09:25;18.40;78.80
35305;DHT22;26433;48.034;-1.764;2022-09-16T08:14:49;18.50;78.60
35305;DHT22;26433;48.034;-1.764;2022-09-16T08:19:54;18.70;78.10
35305;DHT22;26433;48.034;-1.764;2022-09-16T08:24:58;18.80;77.50
35305;DHT22;26433;48.034;-1.764;2022-09-16T08:30:01;18.80;77.50
35305;DHT22;26433;48.034;-1.764;2022-09-16T08:35:08;18.70;76.30
35305;DHT22;26433;48.034;-1.764;2022-09-16T08:40:14;18.70;75.60
35305;DHT22;26433;48.034;-1.764;2022-09-16T08:45:25;18.80;75.10
35305;DHT22;26433;48.034;-1.764;2022-09-16T08:50:36;19.00;74.20
35305;DHT22;26433;48.034;-1.764;2022-09-16T08:55:44;19.30;72.90
35305;DHT22;26433;48.034;-1.764;2022-09-16T09:00:53;19.50;71.70
35305;DHT22;26433;48.034;-1.764;2022-09-16T09:05:59;19.90;70.60
35305;DHT22;26433;48.034;-1.764;2022-09-16T09:11:11;20.30;69.00
35305;DHT22;26433;48.034;-1.764;2022-09-16T09:16:23;20.80;67.50
35305;DHT22;26433;48.034;-1.764;2022-09-16T09:21:37;21.20;65.90
35305;DHT22;26433;48.034;-1.764;2022-09-16T09:26:48;21.40;65.10
35305;DHT22;26433;48.034;-1.764;2022-09-16T09:31:58;21.50;64.70
35305;DHT22;26433;48.034;-1.764;2022-09-16T09:37:18;21.50;64.10
35305;DHT22;26433;48.034;-1.764;2022-09-16T09:42:28;21.40;63.90
35305;DHT22;26433;48.034;-1.764;2022-09-16T09:47:35;21.40;64.00
35305;DHT22;26433;48.034;-1.764;2022-09-16T09:52:47;21.60;63.10
35305;DHT22;26433;48.034;-1.764;2022-09-16T09:58:02;22.00;61.70
35305;DHT22;26433;48.034;-1.764;2022-09-16T10:03:10;22.60;60.20
35305;DHT22;26433;48.034;-1.764;2022-09-16T10:08:22;23.60;58.20
35305;DHT22;26433;48.034;-1.764;2022-09-16T10:13:28;24.60;56.40
35305;DHT22;26433;48.034;-1.764;2022-09-16T10:18:32;25.50;55.10
35305;DHT22;26433;48.034;-1.764;2022-09-16T10:23:38;25.90;53.80
35305;DHT22;26433;48.034;-1.764;2022-09-16T10:28:52;25.20;53.90
35305;DHT22;26433;48.034;-1.764;2022-09-16T10:33:58;24.20;54.90
35305;DHT22;26433;48.034;-1.764;2022-09-16T10:39:04;23.60;55.90
35305;DHT22;26433;48.034;-1.764;2022-09-16T10:44:13;22.90;56.50
35305;DHT22;26433;48.034;-1.764;2022-09-16T10:49:23;22.30;57.30
35305;DHT22;26433;48.034;-1.764;2022-09-16T10:54:29;22.00;57.60
35305;DHT22;26433;48.034;-1.764;2022-09-16T10:59:33;21.90;57.40
35305;DHT22;26433;48.034;-1.764;2022-09-16T11:04:55;21.80;57.50
35305;DHT22;26433;48.034;-1.764;2022-09-16T11:10:09;21.90;57.20
35305;DHT22;26433;48.034;-1.764;2022-09-16T11:15:22;22.70;55.70
35305;DHT22;26433;48.034;-1.764;2022-09-16T11:20:44;23.10;55.00
35305;DHT22;26433;48.034;-1.764;2022-09-16T11:25:57;22.90;54.30
35305;DHT22;26433;48.034;-1.764;2022-09-16T11:31:08;22.50;55.00
35305;DHT22;26433;48.034;-1.764;2022-09-16T11:36:24;22.30;55.50
35305;DHT22;26433;48.034;-1.764;2022-09-16T11:41:40;22.10;55.90
35305;DHT22;26433;48.034;-1.764;2022-09-16T11:46:52;22.40;55.30
35305;DHT22;26433;48.034;-1.764;2022-09-16T11:52:12;23.20;54.00
35305;DHT22;26433;48.034;-1.764;2022-09-16T11:57:23;23.20;53.60
35305;DHT22;26433;48.034;-1.764;2022-09-16T12:02:34;22.80;54.00
35305;DHT22;26433;48.034;-1.764;2022-09-16T12:07:44;22.40;54.60
35305;DHT22;26433;48.034;-1.764;2022-09-16T12:12:53;22.60;54.50
35305;DHT22;26433;48.034;-1.764;2022-09-16T12:18:08;23.30;53.40
35305;DHT22;26433;48.034;-1.764;2022-09-16T12:23:14;23.70;52.30
35305;DHT22;26433;48.034;-1.764;2022-09-16T12:28:26;24.00;52.10
35305;DHT22;26433;48.034;-1.764;2022-09-16T12:33:35;24.60;51.50
35305;DHT22;26433;48.034;-1.764;2022-09-16T12:38:41;24.60;51.20
35305;DHT22;26433;48.034;-1.764;2022-09-16T12:44:10;24.80;50.90
35305;DHT22;26433;48.034;-1.764;2022-09-16T12:49:55;25.40;49.80
35305;DHT22;26433;48.034;-1.764;2022-09-16T13:00:54;25.70;48.80
35305;DHT22;26433;48.034;-1.764;2022-09-16T13:06:03;25.10;49.40
35305;DHT22;26433;48.034;-1.764;2022-09-16T13:11:18;24.60;50.20
35305;DHT22;26433;48.034;-1.764;2022-09-16T13:16:52;24.20;50.60
35305;DHT22;26433;48.034;-1.764;2022-09-16T13:21:58;24.30;50.60
35305;DHT22;26433;48.034;-1.764;2022-09-16T13:27:23;24.70;49.80
35305;DHT22;26433;48.034;-1.764;2022-09-16T13:32:37;24.90;48.90
35305;DHT22;26433;48.034;-1.764;2022-09-16T13:37:41;24.70;49.40
35305;DHT22;26433;48.034;-1.764;2022-09-16T13:42:45;24.30;49.70
35305;DHT22;26433;48.034;-1.764;2022-09-16T13:47:50;23.90;50.10
35305;DHT22;26433;48.034;-1.764;2022-09-16T13:52:54;24.00;50.20
35305;DHT22;26433;48.034;-1.764;2022-09-16T13:58:00;24.20;49.80
35305;DHT22;26433;48.034;-1.764;2022-09-16T14:08:45;25.00;48.80
35305;DHT22;26433;48.034;-1.764;2022-09-16T14:13:55;24.70;48.50
35305;DHT22;26433;48.034;-1.764;2022-09-16T14:19:24;25.00;48.20
35305;DHT22;26433;48.034;-1.764;2022-09-16T14:24:33;25.30;47.70
35305;DHT22;26433;48.034;-1.764;2022-09-16T14:29:37;25.60;47.20
35305;DHT22;26433;48.034;-1.764;2022-09-16T14:34:42;25.60;47.00
35305;DHT22;26433;48.034;-1.764;2022-09-16T14:39:46;25.20;47.20
35305;DHT22;26433;48.034;-1.764;2022-09-16T14:44:56;24.60;48.00
35305;DHT22;26433;48.034;-1.764;2022-09-16T14:50:04;24.20;48.40
35305;DHT22;26433;48.034;-1.764;2022-09-16T14:55:13;23.90;48.60
35305;DHT22;26433;48.034;-1.764;2022-09-16T15:00:22;23.60;49.10
35305;DHT22;26433;48.034;-1.764;2022-09-16T15:05:32;23.50;49.30
35305;DHT22;26433;48.034;-1.764;2022-09-16T15:10:36;23.10;49.50
35305;DHT22;26433;48.034;-1.764;2022-09-16T15:15:55;22.70;50.00
35305;DHT22;26433;48.034;-1.764;2022-09-16T15:21:06;22.50;50.10
35305;DHT22;26433;48.034;-1.764;2022-09-16T15:26:13;22.40;50.70
35305;DHT22;26433;48.034;-1.764;2022-09-16T15:31:35;22.40;50.20
35305;DHT22;26433;48.034;-1.764;2022-09-16T15:36:41;22.20;50.40
35305;DHT22;26433;48.034;-1.764;2022-09-16T15:41:45;21.90;50.80
35305;DHT22;26433;48.034;-1.764;2022-09-16T15:46:48;21.60;51.10
35305;DHT22;26433;48.034;-1.764;2022-09-16T15:52:04;21.50;51.30
35305;DHT22;26433;48.034;-1.764;2022-09-16T15:57:11;21.30;51.50
35305;DHT22;26433;48.034;-1.764;2022-09-16T16:02:29;21.10;51.60
35305;DHT22;26433;48.034;-1.764;2022-09-16T16:07:40;21.00;51.80
35305;DHT22;26433;48.034;-1.764;2022-09-16T16:12:45;20.80;51.80
35305;DHT22;26433;48.034;-1.764;2022-09-16T16:17:51;20.70;51.70
35305;DHT22;26433;48.034;-1.764;2022-09-16T16:22:57;20.50;51.80
35305;DHT22;26433;48.034;-1.764;2022-09-16T16:28:01;20.40;51.90
35305;DHT22;26433;48.034;-1.764;2022-09-16T16:33:06;20.30;51.90
35305;DHT22;26433;48.034;-1.764;2022-09-16T16:38:11;20.20;52.10
35305;DHT22;26433;48.034;-1.764;2022-09-16T16:43:15;20.10;52.30
35305;DHT22;26433;48.034;-1.764;2022-09-16T16:48:19;19.90;52.60
35305;DHT22;26433;48.034;-1.764;2022-09-16T16:53:24;19.80;53.00
35305;DHT22;26433;48.034;-1.764;2022-09-16T16:58:29;19.60;53.30
35305;DHT22;26433;48.034;-1.764;2022-09-16T17:03:33;19.60;53.70
35305;DHT22;26433;48.034;-1.764;2022-09-16T17:08:38;19.50;53.90
35305;DHT22;26433;48.034;-1.764;2022-09-16T17:13:43;19.50;54.10
35305;DHT22;26433;48.034;-1.764;2022-09-16T17:18:47;19.40;54.50
35305;DHT22;26433;48.034;-1.764;2022-09-16T17:23:53;19.30;54.80
35305;DHT22;26433;48.034;-1.764;2022-09-16T17:28:57;19.20;55.60
35305;DHT22;26433;48.034;-1.764;2022-09-16T17:34:10;19.00;55.20
35305;DHT22;26433;48.034;-1.764;2022-09-16T17:39:17;18.90;55.30
35305;DHT22;26433;48.034;-1.764;2022-09-16T17:44:21;18.90;55.40
35305;DHT22;26433;48.034;-1.764;2022-09-16T17:49:24;18.90;55.40
35305;DHT22;26433;48.034;-1.764;2022-09-16T17:54:29;18.80;55.50
35305;DHT22;26433;48.034;-1.764;2022-09-16T17:59:33;18.70;55.60
35305;DHT22;26433;48.034;-1.764;2022-09-16T18:04:37;18.60;55.60
35305;DHT22;26433;48.034;-1.764;2022-09-16T18:09:42;18.60;55.70
35305;DHT22;26433;48.034;-1.764;2022-09-16T18:14:45;18.50;55.60
35305;DHT22;26433;48.034;-1.764;2022-09-16T18:19:49;18.40;55.80
35305;DHT22;26433;48.034;-1.764;2022-09-16T18:24:54;18.30;55.80
35305;DHT22;26433;48.034;-1.764;2022-09-16T18:29:58;18.20;55.90
35305;DHT22;26433;48.034;-1.764;2022-09-16T18:35:02;18.30;56.00
35305;DHT22;26433;48.034;-1.764;2022-09-16T18:40:08;18.30;56.10
35305;DHT22;26433;48.034;-1.764;2022-09-16T18:45:12;18.30;56.10
35305;DHT22;26433;48.034;-1.764;2022-09-16T18:50:16;18.30;56.10
35305;DHT22;26433;48.034;-1.764;2022-09-16T18:55:21;18.20;56.30
35305;DHT22;26433;48.034;-1.764;2022-09-16T19:00:25;18.10;56.50
35305;DHT22;26433;48.034;-1.764;2022-09-16T19:05:28;18.00;56.80
35305;DHT22;26433;48.034;-1.764;2022-09-16T19:10:33;17.80;57.00
35305;DHT22;26433;48.034;-1.764;2022-09-16T19:15:37;17.70;57.30
35305;DHT22;26433;48.034;-1.764;2022-09-16T19:20:43;17.60;57.50
35305;DHT22;26433;48.034;-1.764;2022-09-16T19:25:49;17.50;57.80
35305;DHT22;26433;48.034;-1.764;2022-09-16T19:30:53;17.40;58.00
35305;DHT22;26433;48.034;-1.764;2022-09-16T19:36:09;17.30;58.30
35305;DHT22;26433;48.034;-1.764;2022-09-16T19:41:14;17.10;58.60
35305;DHT22;26433;48.034;-1.764;2022-09-16T19:46:18;17.00;58.80
35305;DHT22;26433;48.034;-1.764;2022-09-16T19:51:25;17.00;59.10
35305;DHT22;26433;48.034;-1.764;2022-09-16T19:56:31;16.90;59.40
35305;DHT22;26433;48.034;-1.764;2022-09-16T20:01:36;16.80;59.50
35305;DHT22;26433;48.034;-1.764;2022-09-16T20:06:41;16.70;59.60
35305;DHT22;26433;48.034;-1.764;2022-09-16T20:11:46;16.60;59.90
35305;DHT22;26433;48.034;-1.764;2022-09-16T20:16:50;16.50;60.00
35305;DHT22;26433;48.034;-1.764;2022-09-16T20:21:53;16.40;60.00
35305;DHT22;26433;48.034;-1.764;2022-09-16T20:26:59;16.30;60.30
35305;DHT22;26433;48.034;-1.764;2022-09-16T20:32:03;16.30;60.50
35305;DHT22;26433;48.034;-1.764;2022-09-16T20:37:07;16.20;60.80
35305;DHT22;26433;48.034;-1.764;2022-09-16T20:42:12;16.10;61.10
35305;DHT22;26433;48.034;-1.764;2022-09-16T20:47:16;16.00;61.30
35305;DHT22;26433;48.034;-1.764;2022-09-16T20:52:19;15.90;61.50
35305;DHT22;26433;48.034;-1.764;2022-09-16T20:57:24;15.80;61.80
35305;DHT22;26433;48.034;-1.764;2022-09-16T21:02:30;15.80;62.10
35305;DHT22;26433;48.034;-1.764;2022-09-16T21:07:34;15.70;62.30
35305;DHT22;26433;48.034;-1.764;2022-09-16T21:12:39;15.60;62.50
35305;DHT22;26433;48.034;-1.764;2022-09-16T21:17:42;15.60;62.70
35305;DHT22;26433;48.034;-1.764;2022-09-16T21:22:46;15.50;62.90
35305;DHT22;26433;48.034;-1.764;2022-09-16T21:27:51;15.50;63.10
35305;DHT22;26433;48.034;-1.764;2022-09-16T21:32:54;15.40;63.40
35305;DHT22;26433;48.034;-1.764;2022-09-16T21:37:58;15.30;63.50
35305;DHT22;26433;48.034;-1.764;2022-09-16T21:43:05;15.30;63.80
35305;DHT22;26433;48.034;-1.764;2022-09-16T21:48:08;15.20;64.10
35305;DHT22;26433;48.034;-1.764;2022-09-16T21:53:12;15.20;64.20
35305;DHT22;26433;48.034;-1.764;2022-09-16T21:58:17;15.20;64.40
35305;DHT22;26433;48.034;-1.764;2022-09-16T22:03:21;15.10;64.70
35305;DHT22;26433;48.034;-1.764;2022-09-16T22:08:25;15.10;64.90
35305;DHT22;26433;48.034;-1.764;2022-09-16T22:13:30;15.10;65.20
35305;DHT22;26433;48.034;-1.764;2022-09-16T22:18:35;15.10;65.40
35305;DHT22;26433;48.034;-1.764;2022-09-16T22:23:40;15.10;65.50
35305;DHT22;26433;48.034;-1.764;2022-09-16T22:28:46;15.10;65.50
